sensor_id;sensor_type;location;lat;lon;timestamp;P1;durP1;ratioP1;P2;durP2;ratioP2
49710;SDS011;35602;44.534;18.696;2023-05-07T00:01:29;14.10;;;12.70;;
49710;SDS011;35602;44.534;18.696;2023-05-07T00:06:31;13.27;;;11.98;;
49710;SDS011;35602;44.534;18.696;2023-05-07T00:11:32;13.35;;;12.05;;
49710;SDS011;35602;44.534;18.696;2023-05-07T00:16:33;12.82;;;11.52;;
49710;SDS011;35602;44.534;18.696;2023-05-07T00:21:34;12.88;;;11.65;;
49710;SDS011;35602;44.534;18.696;2023-05-07T00:26:35;13.52;;;12.13;;
49710;SDS011;35602;44.534;18.696;2023-05-07T00:31:36;15.35;;;13.13;;
49710;SDS011;35602;44.534;18.696;2023-05-07T00:36:37;13.68;;;12.13;;
49710;SDS011;35602;44.534;18.696;2023-05-07T00:41:38;12.95;;;11.65;;
49710;SDS011;35602;44.534;18.696;2023-05-07T00:46:38;13.07;;;11.70;;
49710;SDS011;35602;44.534;18.696;2023-05-07T00:51:40;14.45;;;12.93;;
49710;SDS011;35602;44.534;18.696;2023-05-07T00:56:41;12.75;;;11.45;;
49710;SDS011;35602;44.534;18.696;2023-05-07T01:01:42;13.27;;;11.90;;
49710;SDS011;35602;44.534;18.696;2023-05-07T01:06:44;13.10;;;11.80;;
49710;SDS011;35602;44.534;18.696;2023-05-07T01:11:46;13.50;;;12.10;;
49710;SDS011;35602;44.534;18.696;2023-05-07T01:16:49;12.85;;;11.55;;
49710;SDS011;35602;44.534;18.696;2023-05-07T01:21:51;12.23;;;11.02;;
49710;SDS011;35602;44.534;18.696;2023-05-07T01:26:56;12.60;;;11.30;;
49710;SDS011;35602;44.534;18.696;2023-05-07T01:31:57;12.57;;;11.27;;
49710;SDS011;35602;44.534;18.696;2023-05-07T01:37:00;13.02;;;11.63;;
49710;SDS011;35602;44.534;18.696;2023-05-07T01:42:01;12.63;;;11.30;;
49710;SDS011;35602;44.534;18.696;2023-05-07T01:47:02;12.32;;;11.12;;
49710;SDS011;35602;44.534;18.696;2023-05-07T01:52:05;12.20;;;10.98;;
49710;SDS011;35602;44.534;18.696;2023-05-07T01:57:06;12.50;;;11.27;;
49710;SDS011;35602;44.534;18.696;2023-05-07T02:02:07;12.07;;;10.88;;
49710;SDS011;35602;44.534;18.696;2023-05-07T02:07:08;12.02;;;10.82;;
49710;SDS011;35602;44.534;18.696;2023-05-07T02:12:09;12.77;;;11.48;;
49710;SDS011;35602;44.534;18.696;2023-05-07T02:17:09;11.65;;;10.52;;
49710;SDS011;35602;44.534;18.696;2023-05-07T02:22:10;11.57;;;10.48;;
49710;SDS011;35602;44.534;18.696;2023-05-07T02:27:11;11.63;;;10.02;;
49710;SDS011;35602;44.534;18.696;2023-05-07T02:32:15;11.50;;;10.30;;
49710;SDS011;35602;44.534;18.696;2023-05-07T02:37:15;11.25;;;10.15;;
49710;SDS011;35602;44.534;18.696;2023-05-07T02:42:16;10.70;;;9.70;;
49710;SDS011;35602;44.534;18.696;2023-05-07T02:47:18;11.77;;;10.57;;
49710;SDS011;35602;44.534;18.696;2023-05-07T02:52:18;11.20;;;10.10;;
49710;SDS011;35602;44.534;18.696;2023-05-07T02:57:19;10.63;;;9.63;;
49710;SDS011;35602;44.534;18.696;2023-05-07T03:02:20;11.18;;;10.07;;
49710;SDS011;35602;44.534;18.696;2023-05-07T03:07:21;10.85;;;9.75;;
49710;SDS011;35602;44.534;18.696;2023-05-07T03:12:22;10.93;;;9.82;;
49710;SDS011;35602;44.534;18.696;2023-05-07T03:17:22;10.57;;;9.57;;
49710;SDS011;35602;44.534;18.696;2023-05-07T03:22:23;10.60;;;9.50;;
49710;SDS011;35602;44.534;18.696;2023-05-07T03:27:24;10.35;;;9.35;;
49710;SDS011;35602;44.534;18.696;2023-05-07T03:32:25;9.90;;;9.00;;
49710;SDS011;35602;44.534;18.696;2023-05-07T03:37:26;10.48;;;9.48;;
49710;SDS011;35602;44.534;18.696;2023-05-07T03:42:28;10.52;;;9.52;;
49710;SDS011;35602;44.534;18.696;2023-05-07T03:47:29;10.30;;;9.30;;
49710;SDS011;35602;44.534;18.696;2023-05-07T03:52:30;9.93;;;8.93;;
49710;SDS011;35602;44.534;18.696;2023-05-07T03:57:31;10.07;;;9.07;;
49710;SDS011;35602;44.534;18.696;2023-05-07T04:02:32;9.95;;;9.05;;
49710;SDS011;35602;44.534;18.696;2023-05-07T04:07:33;9.88;;;8.88;;
49710;SDS011;35602;44.534;18.696;2023-05-07T04:12:34;9.00;;;8.20;;
49710;SDS011;35602;44.534;18.696;2023-05-07T04:17:35;9.82;;;8.93;;
49710;SDS011;35602;44.534;18.696;2023-05-07T04:22:36;8.98;;;8.07;;
49710;SDS011;35602;44.534;18.696;2023-05-07T04:27:37;9.85;;;8.88;;
49710;SDS011;35602;44.534;18.696;2023-05-07T04:32:38;9.73;;;8.75;;
49710;SDS011;35602;44.534;18.696;2023-05-07T04:37:39;9.63;;;8.65;;
49710;SDS011;35602;44.534;18.696;2023-05-07T04:42:40;10.20;;;9.10;;
49710;SDS011;35602;44.534;18.696;2023-05-07T04:47:42;9.85;;;8.95;;
49710;SDS011;35602;44.534;18.696;2023-05-07T04:52:43;9.00;;;8.15;;
49710;SDS011;35602;44.534;18.696;2023-05-07T04:57:45;9.68;;;8.75;;
49710;SDS011;35602;44.534;18.696;2023-05-07T05:02:45;9.70;;;8.70;;
49710;SDS011;35602;44.534;18.696;2023-05-07T05:07:46;9.52;;;8.63;;
49710;SDS011;35602;44.534;18.696;2023-05-07T05:12:47;10.50;;;9.43;;
49710;SDS011;35602;44.534;18.696;2023-05-07T05:17:48;9.45;;;8.52;;
49710;SDS011;35602;44.534;18.696;2023-05-07T05:22:49;9.40;;;8.52;;
49710;SDS011;35602;44.534;18.696;2023-05-07T05:27:50;8.73;;;7.93;;
49710;SDS011;35602;44.534;18.696;2023-05-07T05:32:50;9.30;;;8.40;;
49710;SDS011;35602;44.534;18.696;2023-05-07T05:37:51;9.32;;;8.20;;
49710;SDS011;35602;44.534;18.696;2023-05-07T05:42:52;9.40;;;8.50;;
49710;SDS011;35602;44.534;18.696;2023-05-07T05:47:56;10.00;;;9.05;;
49710;SDS011;35602;44.534;18.696;2023-05-07T05:52:57;10.35;;;9.35;;
49710;SDS011;35602;44.534;18.696;2023-05-07T05:57:59;8.95;;;8.15;;
49710;SDS011;35602;44.534;18.696;2023-05-07T06:03:00;9.45;;;8.55;;
49710;SDS011;35602;44.534;18.696;2023-05-07T06:08:01;9.30;;;8.40;;
49710;SDS011;35602;44.534;18.696;2023-05-07T06:13:03;9.25;;;8.45;;
49710;SDS011;35602;44.534;18.696;2023-05-07T06:18:03;10.25;;;9.25;;
49710;SDS011;35602;44.534;18.696;2023-05-07T06:23:04;9.35;;;8.50;;
49710;SDS011;35602;44.534;18.696;2023-05-07T06:28:05;9.85;;;8.85;;
49710;SDS011;35602;44.534;18.696;2023-05-07T06:33:08;9.35;;;8.45;;
49710;SDS011;35602;44.534;18.696;2023-05-07T06:38:09;9.82;;;8.90;;
49710;SDS011;35602;44.534;18.696;2023-05-07T06:43:10;9.32;;;8.43;;
49710;SDS011;35602;44.534;18.696;2023-05-07T06:48:11;10.30;;;9.20;;
49710;SDS011;35602;44.534;18.696;2023-05-07T06:53:12;9.80;;;8.80;;
49710;SDS011;35602;44.534;18.696;2023-05-07T06:58:13;10.10;;;9.10;;
49710;SDS011;35602;44.534;18.696;2023-05-07T07:03:14;9.35;;;8.43;;
49710;SDS011;35602;44.534;18.696;2023-05-07T07:08:15;9.77;;;8.77;;
49710;SDS011;35602;44.534;18.696;2023-05-07T07:13:18;10.25;;;9.25;;
49710;SDS011;35602;44.534;18.696;2023-05-07T07:18:19;9.98;;;8.98;;
49710;SDS011;35602;44.534;18.696;2023-05-07T07:23:20;10.93;;;9.82;;
49710;SDS011;35602;44.534;18.696;2023-05-07T07:28:21;9.63;;;8.63;;
49710;SDS011;35602;44.534;18.696;2023-05-07T07:33:22;9.25;;;8.38;;
49710;SDS011;35602;44.534;18.696;2023-05-07T07:38:23;9.60;;;8.70;;
49710;SDS011;35602;44.534;18.696;2023-05-07T07:43:24;9.98;;;8.93;;
49710;SDS011;35602;44.534;18.696;2023-05-07T07:48:24;9.13;;;8.32;;
49710;SDS011;35602;44.534;18.696;2023-05-07T07:53:25;10.05;;;9.05;;
49710;SDS011;35602;44.534;18.696;2023-05-07T07:58:26;9.98;;;8.98;;
49710;SDS011;35602;44.534;18.696;2023-05-07T08:03:27;9.30;;;8.40;;
49710;SDS011;35602;44.534;18.696;2023-05-07T08:08:28;10.27;;;9.27;;
49710;SDS011;35602;44.534;18.696;2023-05-07T08:13:29;9.77;;;8.68;;
49710;SDS011;35602;44.534;18.696;2023-05-07T08:18:29;10.25;;;9.25;;
49710;SDS011;35602;44.534;18.696;2023-05-07T08:23:30;10.48;;;9.35;;
49710;SDS011;35602;44.534;18.696;2023-05-07T08:28:31;9.98;;;9.05;;
49710;SDS011;35602;44.534;18.696;2023-05-07T08:33:32;10.25;;;9.23;;
49710;SDS011;35602;44.534;18.696;2023-05-07T08:38:34;9.90;;;8.90;;
49710;SDS011;35602;44.534;18.696;2023-05-07T08:43:35;9.98;;;9.00;;
49710;SDS011;35602;44.534;18.696;2023-05-07T08:48:38;10.18;;;9.18;;
49710;SDS011;35602;44.534;18.696;2023-05-07T08:53:42;9.23;;;8.32;;
49710;SDS011;35602;44.534;18.696;2023-05-07T08:58:44;9.80;;;8.80;;
49710;SDS011;35602;44.534;18.696;2023-05-07T09:03:45;9.85;;;8.85;;
49710;SDS011;35602;44.534;18.696;2023-05-07T09:08:53;9.35;;;8.45;;
49710;SDS011;35602;44.534;18.696;2023-05-07T09:13:55;9.18;;;8.30;;
49710;SDS011;35602;44.534;18.696;2023-05-07T09:18:58;10.27;;;9.27;;
49710;SDS011;35602;44.534;18.696;2023-05-07T09:24:00;10.13;;;9.13;;
49710;SDS011;35602;44.534;18.696;2023-05-07T09:29:01;10.00;;;9.00;;
49710;SDS011;35602;44.534;18.696;2023-05-07T09:34:04;9.48;;;8.57;;
49710;SDS011;35602;44.534;18.696;2023-05-07T09:39:05;9.20;;;8.35;;
49710;SDS011;35602;44.534;18.696;2023-05-07T09:44:06;9.77;;;8.88;;
49710;SDS011;35602;44.534;18.696;2023-05-07T09:49:07;9.15;;;8.25;;
49710;SDS011;35602;44.534;18.696;2023-05-07T09:54:14;9.80;;;8.80;;
49710;SDS011;35602;44.534;18.696;2023-05-07T09:59:16;10.43;;;9.43;;
49710;SDS011;35602;44.534;18.696;2023-05-07T10:04:17;10.18;;;9.18;;
49710;SDS011;35602;44.534;18.696;2023-05-07T10:09:18;9.77;;;8.82;;
49710;SDS011;35602;44.534;18.696;2023-05-07T10:14:21;10.25;;;9.25;;
49710;SDS011;35602;44.534;18.696;2023-05-07T10:19:22;10.10;;;9.07;;
49710;SDS011;35602;44.534;18.696;2023-05-07T10:24:43;10.57;;;9.57;;
49710;SDS011;35602;44.534;18.696;2023-05-07T10:29:53;10.35;;;9.35;;
49710;SDS011;35602;44.534;18.696;2023-05-07T10:35:17;9.18;;;8.20;;
49710;SDS011;35602;44.534;18.696;2023-05-07T10:40:21;9.75;;;8.80;;
49710;SDS011;35602;44.534;18.696;2023-05-07T10:45:23;10.77;;;9.73;;
49710;SDS011;35602;44.534;18.696;2023-05-07T10:50:24;10.40;;;9.40;;
49710;SDS011;35602;44.534;18.696;2023-05-07T10:55:25;9.88;;;8.88;;
49710;SDS011;35602;44.534;18.696;2023-05-07T11:06:15;10.45;;;9.40;;
49710;SDS011;35602;44.534;18.696;2023-05-07T11:11:16;10.55;;;9.55;;
49710;SDS011;35602;44.534;18.696;2023-05-07T11:16:20;11.40;;;10.30;;
49710;SDS011;35602;44.534;18.696;2023-05-07T11:21:35;11.15;;;10.05;;
49710;SDS011;35602;44.534;18.696;2023-05-07T11:26:44;10.70;;;9.70;;
49710;SDS011;35602;44.534;18.696;2023-05-07T11:31:52;11.93;;;10.73;;
49710;SDS011;35602;44.534;18.696;2023-05-07T11:36:54;11.88;;;10.68;;
49710;SDS011;35602;44.534;18.696;2023-05-07T11:41:56;11.10;;;10.00;;
49710;SDS011;35602;44.534;18.696;2023-05-07T11:46:57;12.15;;;10.85;;
49710;SDS011;35602;44.534;18.696;2023-05-07T11:51:57;12.15;;;10.85;;
49710;SDS011;35602;44.534;18.696;2023-05-07T11:56:58;11.95;;;10.75;;
49710;SDS011;35602;44.534;18.696;2023-05-07T12:01:59;11.90;;;10.70;;
49710;SDS011;35602;44.534;18.696;2023-05-07T12:07:00;12.13;;;10.93;;
49710;SDS011;35602;44.534;18.696;2023-05-07T12:12:04;11.82;;;10.63;;
49710;SDS011;35602;44.534;18.696;2023-05-07T12:17:06;12.68;;;11.45;;
49710;SDS011;35602;44.534;18.696;2023-05-07T12:22:08;12.32;;;11.07;;
49710;SDS011;35602;44.534;18.696;2023-05-07T12:27:09;13.05;;;11.65;;
49710;SDS011;35602;44.534;18.696;2023-05-07T12:32:12;12.85;;;11.63;;
49710;SDS011;35602;44.534;18.696;2023-05-07T12:42:23;13.98;;;12.57;;
49710;SDS011;35602;44.534;18.696;2023-05-07T12:47:26;13.15;;;11.85;;
49710;SDS011;35602;44.534;18.696;2023-05-07T12:52:27;13.35;;;11.95;;
49710;SDS011;35602;44.534;18.696;2023-05-07T12:57:28;13.55;;;12.25;;
49710;SDS011;35602;44.534;18.696;2023-05-07T13:02:33;13.68;;;12.27;;
49710;SDS011;35602;44.534;18.696;2023-05-07T13:07:34;13.35;;;11.98;;
49710;SDS011;35602;44.534;18.696;2023-05-07T13:12:36;14.65;;;13.15;;
49710;SDS011;35602;44.534;18.696;2023-05-07T13:17:37;14.02;;;12.63;;
49710;SDS011;35602;44.534;18.696;2023-05-07T13:22:39;14.52;;;13.13;;
49710;SDS011;35602;44.534;18.696;2023-05-07T13:27:40;14.23;;;12.82;;
49710;SDS011;35602;44.534;18.696;2023-05-07T13:32:43;14.73;;;13.23;;
49710;SDS011;35602;44.534;18.696;2023-05-07T13:37:45;15.00;;;13.50;;
49710;SDS011;35602;44.534;18.696;2023-05-07T13:42:49;13.82;;;12.43;;
49710;SDS011;35602;44.534;18.696;2023-05-07T13:47:50;15.43;;;13.82;;
49710;SDS011;35602;44.534;18.696;2023-05-07T13:52:51;15.20;;;13.60;;
49710;SDS011;35602;44.534;18.696;2023-05-07T13:57:56;15.02;;;13.52;;
49710;SDS011;35602;44.534;18.696;2023-05-07T14:02:58;14.87;;;13.38;;
49710;SDS011;35602;44.534;18.696;2023-05-07T14:07:59;15.43;;;13.82;;
49710;SDS011;35602;44.534;18.696;2023-05-07T14:13:00;15.40;;;13.80;;
49710;SDS011;35602;44.534;18.696;2023-05-07T14:18:04;15.45;;;13.88;;
49710;SDS011;35602;44.534;18.696;2023-05-07T14:23:05;15.82;;;14.20;;
49710;SDS011;35602;44.534;18.696;2023-05-07T14:28:06;15.90;;;14.30;;
49710;SDS011;35602;44.534;18.696;2023-05-07T14:33:07;16.60;;;14.90;;
49710;SDS011;35602;44.534;18.696;2023-05-07T14:38:08;16.98;;;15.25;;
49710;SDS011;35602;44.534;18.696;2023-05-07T14:43:09;16.17;;;14.48;;
49710;SDS011;35602;44.534;18.696;2023-05-07T14:48:09;15.60;;;14.05;;
49710;SDS011;35602;44.534;18.696;2023-05-07T14:53:15;16.65;;;14.85;;
49710;SDS011;35602;44.534;18.696;2023-05-07T14:58:19;15.32;;;13.82;;
49710;SDS011;35602;44.534;18.696;2023-05-07T15:03:19;15.40;;;13.80;;
49710;SDS011;35602;44.534;18.696;2023-05-07T15:08:21;16.73;;;15.02;;
49710;SDS011;35602;44.534;18.696;2023-05-07T15:13:22;16.27;;;14.57;;
49710;SDS011;35602;44.534;18.696;2023-05-07T15:18:23;16.83;;;14.93;;
49710;SDS011;35602;44.534;18.696;2023-05-07T15:23:24;16.98;;;15.27;;
49710;SDS011;35602;44.534;18.696;2023-05-07T15:28:26;16.42;;;14.73;;
49710;SDS011;35602;44.534;18.696;2023-05-07T15:33:28;16.75;;;15.05;;
49710;SDS011;35602;44.534;18.696;2023-05-07T15:38:28;16.20;;;14.60;;
49710;SDS011;35602;44.534;18.696;2023-05-07T15:43:30;16.50;;;14.80;;
49710;SDS011;35602;44.534;18.696;2023-05-07T15:48:31;15.85;;;14.25;;
49710;SDS011;35602;44.534;18.696;2023-05-07T15:53:31;16.58;;;14.87;;
49710;SDS011;35602;44.534;18.696;2023-05-07T15:58:34;16.25;;;14.65;;
49710;SDS011;35602;44.534;18.696;2023-05-07T16:03:35;16.65;;;15.02;;
49710;SDS011;35602;44.534;18.696;2023-05-07T16:08:37;16.75;;;14.98;;
49710;SDS011;35602;44.534;18.696;2023-05-07T16:13:39;17.10;;;15.40;;
49710;SDS011;35602;44.534;18.696;2023-05-07T16:18:40;16.75;;;15.15;;
49710;SDS011;35602;44.534;18.696;2023-05-07T16:23:41;15.75;;;14.15;;
49710;SDS011;35602;44.534;18.696;2023-05-07T16:28:41;16.17;;;14.38;;
49710;SDS011;35602;44.534;18.696;2023-05-07T16:33:42;16.27;;;14.68;;
49710;SDS011;35602;44.534;18.696;2023-05-07T16:38:44;16.48;;;14.87;;
49710;SDS011;35602;44.534;18.696;2023-05-07T16:43:45;15.90;;;14.30;;
49710;SDS011;35602;44.534;18.696;2023-05-07T16:48:46;15.43;;;13.93;;
49710;SDS011;35602;44.534;18.696;2023-05-07T16:53:47;16.58;;;14.98;;
49710;SDS011;35602;44.534;18.696;2023-05-07T16:58:48;16.12;;;14.52;;
49710;SDS011;35602;44.534;18.696;2023-05-07T17:03:49;17.80;;;16.00;;
49710;SDS011;35602;44.534;18.696;2023-05-07T17:08:50;16.20;;;14.60;;
49710;SDS011;35602;44.534;18.696;2023-05-07T17:13:51;15.95;;;14.35;;
49710;SDS011;35602;44.534;18.696;2023-05-07T17:18:52;16.83;;;15.15;;
49710;SDS011;35602;44.534;18.696;2023-05-07T17:23:52;16.23;;;14.60;;
49710;SDS011;35602;44.534;18.696;2023-05-07T17:28:53;16.67;;;14.98;;
49710;SDS011;35602;44.534;18.696;2023-05-07T17:33:54;16.62;;;15.02;;
49710;SDS011;35602;44.534;18.696;2023-05-07T17:38:58;15.82;;;14.23;;
49710;SDS011;35602;44.534;18.696;2023-05-07T17:43:58;16.35;;;14.65;;
49710;SDS011;35602;44.534;18.696;2023-05-07T17:48:59;16.37;;;14.77;;
49710;SDS011;35602;44.534;18.696;2023-05-07T17:54:00;16.23;;;14.63;;
49710;SDS011;35602;44.534;18.696;2023-05-07T17:59:01;16.33;;;14.73;;
49710;SDS011;35602;44.534;18.696;2023-05-07T18:04:02;16.67;;;14.98;;
49710;SDS011;35602;44.534;18.696;2023-05-07T18:09:02;16.40;;;14.80;;
49710;SDS011;35602;44.534;18.696;2023-05-07T18:14:03;16.67;;;15.00;;
49710;SDS011;35602;44.534;18.696;2023-05-07T18:19:04;16.42;;;14.80;;
49710;SDS011;35602;44.534;18.696;2023-05-07T18:24:06;15.63;;;14.07;;
49710;SDS011;35602;44.534;18.696;2023-05-07T18:29:07;15.88;;;14.25;;
49710;SDS011;35602;44.534;18.696;2023-05-07T18:34:08;16.25;;;14.55;;
49710;SDS011;35602;44.534;18.696;2023-05-07T18:39:09;15.88;;;14.27;;
49710;SDS011;35602;44.534;18.696;2023-05-07T18:44:10;15.50;;;14.00;;
49710;SDS011;35602;44.534;18.696;2023-05-07T18:49:11;15.73;;;14.20;;
49710;SDS011;35602;44.534;18.696;2023-05-07T18:54:11;16.30;;;14.68;;
49710;SDS011;35602;44.534;18.696;2023-05-07T18:59:12;15.50;;;14.00;;
49710;SDS011;35602;44.534;18.696;2023-05-07T19:04:16;14.95;;;13.55;;
49710;SDS011;35602;44.534;18.696;2023-05-07T19:09:17;15.82;;;14.32;;
49710;SDS011;35602;44.534;18.696;2023-05-07T19:14:18;16.20;;;14.57;;
49710;SDS011;35602;44.534;18.696;2023-05-07T19:19:18;14.80;;;13.40;;
49710;SDS011;35602;44.534;18.696;2023-05-07T19:24:19;15.50;;;13.98;;
49710;SDS011;35602;44.534;18.696;2023-05-07T19:29:20;15.48;;;13.90;;
49710;SDS011;35602;44.534;18.696;2023-05-07T19:34:21;15.93;;;14.43;;
49710;SDS011;35602;44.534;18.696;2023-05-07T19:39:22;15.20;;;13.70;;
49710;SDS011;35602;44.534;18.696;2023-05-07T19:44:23;15.10;;;13.60;;
49710;SDS011;35602;44.534;18.696;2023-05-07T19:49:24;15.32;;;13.82;;
49710;SDS011;35602;44.534;18.696;2023-05-07T19:54:25;14.60;;;13.18;;
49710;SDS011;35602;44.534;18.696;2023-05-07T19:59:25;14.65;;;13.15;;
49710;SDS011;35602;44.534;18.696;2023-05-07T20:04:26;16.40;;;14.75;;
49710;SDS011;35602;44.534;18.696;2023-05-07T20:09:32;15.07;;;13.60;;
49710;SDS011;35602;44.534;18.696;2023-05-07T20:14:33;15.82;;;14.32;;
49710;SDS011;35602;44.534;18.696;2023-05-07T20:19:35;14.73;;;13.32;;
49710;SDS011;35602;44.534;18.696;2023-05-07T20:24:36;16.17;;;14.57;;
49710;SDS011;35602;44.534;18.696;2023-05-07T20:29:40;15.25;;;13.75;;
49710;SDS011;35602;44.534;18.696;2023-05-07T20:34:41;16.00;;;14.40;;
49710;SDS011;35602;44.534;18.696;2023-05-07T20:39:43;14.38;;;12.98;;
49710;SDS011;35602;44.534;18.696;2023-05-07T20:44:45;15.05;;;13.50;;
49710;SDS011;35602;44.534;18.696;2023-05-07T20:49:49;14.80;;;13.30;;
49710;SDS011;35602;44.534;18.696;2023-05-07T20:54:51;14.87;;;13.30;;
49710;SDS011;35602;44.534;18.696;2023-05-07T20:59:52;14.43;;;13.02;;
49710;SDS011;35602;44.534;18.696;2023-05-07T21:04:53;14.50;;;13.10;;
49710;SDS011;35602;44.534;18.696;2023-05-07T21:09:54;14.93;;;13.43;;
49710;SDS011;35602;44.534;18.696;2023-05-07T21:14:55;14.98;;;13.45;;
49710;SDS011;35602;44.534;18.696;2023-05-07T21:19:58;14.70;;;13.10;;
49710;SDS011;35602;44.534;18.696;2023-05-07T21:24:59;14.70;;;13.20;;
49710;SDS011;35602;44.534;18.696;2023-05-07T21:30:00;14.23;;;12.85;;
49710;SDS011;35602;44.534;18.696;2023-05-07T21:35:04;14.18;;;12.77;;
49710;SDS011;35602;44.534;18.696;2023-05-07T21:40:06;13.70;;;12.30;;
49710;SDS011;35602;44.534;18.696;2023-05-07T21:45:08;13.27;;;11.88;;
49710;SDS011;35602;44.534;18.696;2023-05-07T21:50:10;13.32;;;12.00;;
49710;SDS011;35602;44.534;18.696;2023-05-07T21:55:11;14.25;;;12.77;;
49710;SDS011;35602;44.534;18.696;2023-05-07T22:00:12;14.00;;;12.57;;
49710;SDS011;35602;44.534;18.696;2023-05-07T22:05:15;12.93;;;11.73;;
49710;SDS011;35602;44.534;18.696;2023-05-07T22:10:16;14.80;;;13.20;;
49710;SDS011;35602;44.534;18.696;2023-05-07T22:15:21;13.95;;;12.55;;
49710;SDS011;35602;44.534;18.696;2023-05-07T22:20:22;12.68;;;11.40;;
49710;SDS011;35602;44.534;18.696;2023-05-07T22:25:23;13.32;;;12.02;;
49710;SDS011;35602;44.534;18.696;2023-05-07T22:30:25;13.65;;;12.25;;
49710;SDS011;35602;44.534;18.696;2023-05-07T22:35:27;12.80;;;11.57;;
49710;SDS011;35602;44.534;18.696;2023-05-07T22:40:28;13.68;;;12.27;;
49710;SDS011;35602;44.534;18.696;2023-05-07T22:45:29;13.93;;;12.52;;
49710;SDS011;35602;44.534;18.696;2023-05-07T22:50:29;13.73;;;12.43;;
49710;SDS011;35602;44.534;18.696;2023-05-07T22:55:30;12.40;;;11.20;;
49710;SDS011;35602;44.534;18.696;2023-05-07T23:00:31;13.23;;;11.93;;
49710;SDS011;35602;44.534;18.696;2023-05-07T23:05:32;13.00;;;11.70;;
49710;SDS011;35602;44.534;18.696;2023-05-07T23:10:33;12.50;;;11.30;;
49710;SDS011;35602;44.534;18.696;2023-05-07T23:15:34;12.45;;;11.15;;
49710;SDS011;35602;44.534;18.696;2023-05-07T23:20:35;12.77;;;11.48;;
49710;SDS011;35602;44.534;18.696;2023-05-07T23:25:37;12.52;;;11.32;;
49710;SDS011;35602;44.534;18.696;2023-05-07T23:30:38;13.10;;;11.80;;
49710;SDS011;35602;44.534;18.696;2023-05-07T23:35:39;12.15;;;10.95;;
49710;SDS011;35602;44.534;18.696;2023-05-07T23:40:40;12.90;;;11.60;;
49710;SDS011;35602;44.534;18.696;2023-05-07T23:45:41;13.18;;;11.88;;
49710;SDS011;35602;44.534;18.696;2023-05-07T23:50:43;11.85;;;10.70;;
49710;SDS011;35602;44.534;18.696;2023-05-07T23:55:47;11.77;;;10.68;;
